Time;durP1;ratioP1;P1;durP2;ratioP2;P2;SDS_P1;SDS_P2;PMS_P1;PMS_P2;Temp;Humidity;BMP_temperature;BMP_pressure;BME280_temperature;BME280_humidity;BME280_pressure;Samples;Min_cycle;Max_cycle;Signal;HPM_P1;HPM_P2
2023/01/22 00:01:15;;;;;;;10.50;9.40;;;11.10;99.90;;;;;;5117759;28;20425;-35
2023/01/22 00:03:41;;;;;;;13.00;9.80;;;10.80;99.90;;;;;;5117933;28;20417;-35
2023/01/22 00:06:07;;;;;;;11.10;9.90;;;10.00;1.00;;;;;;5117614;28;20417;-35
2023/01/22 00:08:33;;;;;;;11.07;10.03;;;9.10;99.90;;;;;;5117871;28;20471;-34
2023/01/22 00:10:59;;;;;;;11.30;10.20;;;8.10;99.90;;;;;;5118226;28;20412;-35
2023/01/22 00:13:26;;;;;;;10.70;9.60;;;7.30;99.90;;;;;;5118950;28;20421;-35
2023/01/22 00:15:52;;;;;;;12.23;10.93;;;6.50;99.90;;;;;;5117758;28;20175;-36
2023/01/22 00:18:18;;;;;;;13.10;11.70;;;5.80;99.90;;;;;;5118509;28;20703;-35
2023/01/22 00:20:50;;;;;;;12.27;10.97;;;5.30;1.00;;;;;;5119112;28;20482;-34
2023/01/22 00:23:16;;;;;;;12.10;10.27;;;4.80;1.00;;;;;;5119472;28;20477;-36
2023/01/22 00:25:42;;;;;;;14.40;11.53;;;4.40;99.90;;;;;;5119270;28;20417;-35
2023/01/22 00:28:08;;;;;;;13.03;11.63;;;4.00;99.90;;;;;;5116366;28;20276;-35
2023/01/22 00:30:34;;;;;;;15.80;12.10;;;3.70;1.00;;;;;;5119281;28;20168;-36
2023/01/22 00:32:59;;;;;;;14.33;12.03;;;3.50;99.90;;;;;;5117176;28;20429;-36
2023/01/22 00:35:25;;;;;;;12.83;11.27;;;3.30;99.90;;;;;;5116579;28;20164;-34
2023/01/22 00:37:51;;;;;;;12.43;10.33;;;3.20;1.00;;;;;;5115559;28;20190;-36
2023/01/22 00:40:17;;;;;;;12.30;11.00;;;3.00;1.00;;;;;;5116996;28;20439;-34
2023/01/22 00:42:43;;;;;;;13.53;11.00;;;2.90;1.00;;;;;;5116067;28;20210;-36
2023/01/22 00:45:09;;;;;;;13.90;11.93;;;2.80;19.10;;;;;;5116712;28;20649;-35
2023/01/22 00:47:34;;;;;;;14.00;10.67;;;2.70;43.00;;;;;;5114603;28;20219;-34
2023/01/22 00:50:01;;;;;;;13.70;10.67;;;2.60;99.90;;;;;;5116311;28;20807;-37
2023/01/22 00:52:26;;;;;;;13.43;11.33;;;2.60;99.90;;;;;;5115241;28;20176;-37
2023/01/22 00:54:52;;;;;;;14.23;11.90;;;2.50;99.90;;;;;;5115857;28;20494;-37
2023/01/22 00:57:20;;;;;;;13.47;10.70;;;2.50;99.90;;;;;;5114593;28;20414;-37
2023/01/22 00:59:47;;;;;;;15.57;11.17;;;2.40;99.90;;;;;;5116009;28;20199;-37
2023/01/22 01:02:13;;;;;;;12.37;10.50;;;2.40;99.90;;;;;;5117699;28;20437;-38
2023/01/22 01:04:39;;;;;;;12.93;10.60;;;2.30;99.90;;;;;;5116645;28;20440;-35
2023/01/22 01:07:04;;;;;;;11.80;10.50;;;2.30;99.90;;;;;;5114390;28;20437;-36
2023/01/22 01:09:30;;;;;;;12.93;11.30;;;2.20;99.90;;;;;;5112210;28;20573;-36
2023/01/22 01:11:56;;;;;;;13.63;10.63;;;2.20;99.90;;;;;;5114190;28;20192;-35
2023/01/22 01:14:21;;;;;;;12.40;9.83;;;2.20;99.90;;;;;;5115109;27;20210;-36
2023/01/22 01:16:49;;;;;;;12.77;10.13;;;2.10;99.90;;;;;;5115279;28;20536;-36
2023/01/22 01:19:16;;;;;;;12.23;9.93;;;2.10;99.90;;;;;;5114223;28;20252;-35
2023/01/22 01:21:42;;;;;;;11.07;9.43;;;2.00;99.90;;;;;;5117973;28;20441;-36
2023/01/22 01:24:09;;;;;;;13.70;9.97;;;2.00;99.90;;;;;;5118714;28;20421;-37
2023/01/22 01:26:34;;;;;;;11.63;9.50;;;2.00;99.90;;;;;;5118217;28;20516;-35
2023/01/22 01:29:03;;;;;;;12.17;10.17;;;2.00;99.90;;;;;;5117950;28;20575;-34
2023/01/22 01:31:29;;;;;;;14.03;9.57;;;1.90;99.90;;;;;;5116342;28;20184;-35
2023/01/22 01:33:55;;;;;;;15.40;10.60;;;1.90;99.90;;;;;;5117136;28;20759;-36
2023/01/22 01:36:23;;;;;;;11.67;9.70;;;1.90;99.90;;;;;;5117880;28;20496;-37
2023/01/22 01:38:50;;;;;;;12.73;10.30;;;1.90;99.90;;;;;;5118423;28;20417;-35
2023/01/22 01:41:21;;;;;;;11.70;9.93;;;1.90;99.90;;;;;;5115247;28;20420;-35
2023/01/22 01:44:11;;;;;;;13.33;10.43;;;1.90;99.90;;;;;;5118796;28;20414;-37
2023/01/22 01:46:43;;;;;;;12.47;10.00;;;1.90;99.90;;;;;;5118013;28;20829;-37
2023/01/22 01:49:24;;;;;;;14.00;10.90;;;1.80;99.90;;;;;;5114527;28;20522;-35
2023/01/22 01:51:51;;;;;;;12.33;10.87;;;1.80;99.90;;;;;;5097663;28;20666;-36
2023/01/22 01:54:17;;;;;;;12.90;11.30;;;1.80;99.90;;;;;;5097617;28;20418;-37
2023/01/22 01:56:47;;;;;;;15.77;10.73;;;1.70;99.90;;;;;;5096623;28;20509;-37
2023/01/22 01:59:14;;;;;;;12.33;10.00;;;1.70;99.90;;;;;;5095996;28;20437;-36
2023/01/22 02:01:40;;;;;;;11.93;10.43;;;1.70;1.00;;;;;;5094535;28;20752;-36
2023/01/22 02:04:06;;;;;;;12.40;10.57;;;1.70;1.00;;;;;;5096471;28;20505;-36
2023/01/22 02:06:32;;;;;;;13.83;10.57;;;1.70;1.00;;;;;;5096060;28;20521;-36
2023/01/22 02:08:59;;;;;;;11.83;9.33;;;1.70;1.00;;;;;;5097960;28;20530;-36
2023/01/22 02:11:25;;;;;;;12.10;9.63;;;1.70;1.00;;;;;;5097513;28;20323;-36
2023/01/22 02:14:01;;;;;;;13.47;10.30;;;1.70;1.00;;;;;;5110343;28;21028;-36
2023/01/22 02:16:27;;;;;;;12.90;10.80;;;1.70;1.00;;;;;;5115578;28;20440;-35
2023/01/22 02:18:53;;;;;;;11.30;9.47;;;1.70;1.00;;;;;;5111896;28;20425;-36
2023/01/22 02:21:30;;;;;;;10.67;8.80;;;1.70;1.00;;;;;;5107509;28;20421;-36
2023/01/22 02:23:56;;;;;;;10.83;9.70;;;1.70;1.00;;;;;;5072451;28;20554;-37
2023/01/22 02:26:22;;;;;;;11.27;9.60;;;1.70;1.00;;;;;;5058603;28;20412;-35
2023/01/22 02:28:48;;;;;;;10.80;9.40;;;1.70;1.00;;;;;;5056075;28;20870;-37
2023/01/22 02:31:14;;;;;;;13.50;11.50;;;1.70;1.00;;;;;;5057528;28;20574;-36
2023/01/22 02:33:39;;;;;;;12.20;10.87;;;1.70;1.00;;;;;;5056886;28;20177;-38
2023/01/22 02:36:05;;;;;;;12.40;10.40;;;1.70;1.00;;;;;;5070465;28;20180;-36
2023/01/22 02:38:31;;;;;;;12.37;9.80;;;1.70;1.00;;;;;;5059057;28;20219;-36
2023/01/22 02:40:57;;;;;;;12.77;10.53;;;1.70;1.00;;;;;;5074943;28;20605;-37
2023/01/22 02:43:23;;;;;;;12.90;10.07;;;1.70;1.00;;;;;;5075061;28;20234;-34
2023/01/22 02:45:49;;;;;;;13.00;10.50;;;1.70;1.00;;;;;;5063288;28;20459;-36
2023/01/22 02:48:15;;;;;;;11.37;10.17;;;1.70;1.00;;;;;;5057328;28;20205;-36
2023/01/22 02:50:40;;;;;;;12.50;11.00;;;1.70;1.00;;;;;;5057405;28;20315;-36
2023/01/22 02:53:06;;;;;;;14.03;11.07;;;1.70;1.00;;;;;;5057677;28;20499;-36
2023/01/22 02:55:32;;;;;;;12.13;10.43;;;1.70;1.00;;;;;;5057908;28;20174;-35
2023/01/22 03:01:23;;;;;;;12.17;9.57;;;1.70;1.00;;;;;;5057456;28;20181;-41
2023/01/22 03:03:58;;;;;;;11.43;10.23;;;1.70;1.00;;;;;;5056544;28;20924;-39
2023/01/22 03:06:25;;;;;;;12.77;10.80;;;1.70;1.00;;;;;;5057893;28;20415;-36
2023/01/22 03:08:56;;;;;;;14.00;11.13;;;1.70;1.00;;;;;;5057248;28;20506;-36
2023/01/22 03:11:22;;;;;;;10.50;9.33;;;1.70;1.00;;;;;;5060409;28;20412;-36
2023/01/22 03:22:01;;;;;;;12.80;10.10;;;1.70;1.00;;;;;;5069337;28;20753;-36
2023/01/22 03:24:27;;;;;;;13.40;12.10;;;1.70;1.00;;;;;;5099032;28;20844;-37
2023/01/22 03:26:53;;;;;;;12.93;10.30;;;1.70;1.00;;;;;;5098784;28;20566;-37
2023/01/22 03:29:18;;;;;;;14.50;11.30;;;1.70;1.00;;;;;;5098894;28;20186;-37
2023/01/22 03:31:47;;;;;;;13.77;11.57;;;1.70;1.00;;;;;;5101106;28;20237;-37
2023/01/22 03:34:14;;;;;;;12.53;10.53;;;1.70;1.00;;;;;;5102045;28;20599;-37
2023/01/22 03:36:40;;;;;;;13.53;11.67;;;1.70;1.00;;;;;;5105587;28;20481;-36
2023/01/22 03:39:06;;;;;;;12.90;11.30;;;1.70;1.00;;;;;;5117486;28;20446;-37
2023/01/22 03:41:31;;;;;;;12.63;10.40;;;1.70;1.00;;;;;;5100558;28;20434;-37
2023/01/22 03:44:00;;;;;;;14.33;12.80;;;1.80;1.00;;;;;;5100526;28;20187;-36
2023/01/22 03:46:26;;;;;;;14.17;11.03;;;1.70;1.00;;;;;;5100051;28;20173;-37
2023/01/22 03:48:52;;;;;;;12.90;10.93;;;1.70;1.00;;;;;;5099138;28;20458;-36
2023/01/22 03:51:18;;;;;;;14.47;11.70;;;1.70;1.00;;;;;;5116585;28;20517;-37
2023/01/22 03:53:44;;;;;;;12.80;10.90;;;1.70;1.00;;;;;;5104158;28;20901;-37
2023/01/22 03:56:12;;;;;;;14.77;11.60;;;1.70;1.00;;;;;;5109700;28;20251;-37
2023/01/22 03:58:38;;;;;;;12.77;11.07;;;1.70;1.00;;;;;;5119820;27;20853;-36
2023/01/22 04:01:09;;;;;;;13.47;11.17;;;1.70;1.00;;;;;;5119410;28;20409;-37
2023/01/22 04:03:35;;;;;;;13.23;11.70;;;1.70;1.00;;;;;;5120429;27;20430;-43
2023/01/22 04:06:01;;;;;;;14.50;12.73;;;1.70;1.00;;;;;;5120239;28;20421;-37
2023/01/22 04:08:28;;;;;;;13.90;12.43;;;1.80;1.00;;;;;;5119623;27;20751;-37
2023/01/22 04:10:55;;;;;;;14.70;12.67;;;1.80;1.00;;;;;;5120352;28;20500;-37
2023/01/22 04:13:21;;;;;;;14.97;12.47;;;1.80;1.00;;;;;;5120606;28;20486;-37
2023/01/22 04:15:46;;;;;;;14.80;12.63;;;1.80;1.00;;;;;;5120887;27;20418;-36
2023/01/22 04:18:12;;;;;;;15.67;13.07;;;1.80;1.00;;;;;;5121233;28;20211;-38
2023/01/22 04:20:38;;;;;;;15.23;12.43;;;1.80;1.00;;;;;;5121045;28;20178;-37
2023/01/22 04:23:05;;;;;;;15.33;12.07;;;1.80;1.00;;;;;;5121926;28;20236;-37
2023/01/22 04:25:30;;;;;;;14.40;12.17;;;1.80;1.00;;;;;;5120284;28;20422;-37
2023/01/22 04:27:56;;;;;;;15.87;12.10;;;1.80;1.00;;;;;;5120922;28;20469;-37
2023/01/22 04:30:21;;;;;;;13.87;11.97;;;1.80;1.00;;;;;;5120758;28;20172;-37
2023/01/22 04:32:47;;;;;;;14.93;11.47;;;1.80;1.00;;;;;;5120871;28;20207;-36
2023/01/22 04:35:13;;;;;;;16.90;12.43;;;1.80;1.00;;;;;;5118761;28;20172;-37
2023/01/22 04:37:38;;;;;;;15.93;13.73;;;1.80;1.00;;;;;;5107872;28;20179;-37
2023/01/22 04:40:04;;;;;;;15.00;11.73;;;1.80;1.00;;;;;;5120488;28;20180;-37
2023/01/22 04:42:31;;;;;;;14.60;12.17;;;1.80;1.00;;;;;;5118344;28;20184;-37
2023/01/22 04:44:57;;;;;;;17.60;12.43;;;1.80;1.00;;;;;;5112263;28;20483;-37
2023/01/22 04:47:23;;;;;;;14.30;12.17;;;1.80;1.00;;;;;;5097663;28;20466;-37
2023/01/22 04:49:49;;;;;;;15.80;13.10;;;1.80;1.00;;;;;;5097846;28;20422;-37
2023/01/22 04:52:14;;;;;;;15.03;13.17;;;1.80;1.00;;;;;;5097402;28;20581;-37
2023/01/22 04:54:40;;;;;;;14.40;11.93;;;1.80;1.00;;;;;;5098950;28;20506;-37
2023/01/22 04:57:06;;;;;;;16.60;13.60;;;1.80;1.30;;;;;;5099561;28;20181;-37
2023/01/22 04:59:31;;;;;;;14.83;12.77;;;1.80;1.00;;;;;;5099365;28;20188;-36
2023/01/22 05:01:57;;;;;;;14.97;13.33;;;1.80;1.00;;;;;;5099495;28;20259;-37
2023/01/22 05:04:22;;;;;;;13.63;12.13;;;1.90;1.00;;;;;;5099333;28;20187;-37
2023/01/22 05:06:48;;;;;;;15.30;12.83;;;1.90;1.00;;;;;;5097339;28;20245;-38
2023/01/22 05:09:14;;;;;;;15.83;12.93;;;1.80;1.00;;;;;;5097479;28;20200;-37
2023/01/22 05:11:40;;;;;;;16.27;12.87;;;1.90;1.00;;;;;;5098676;28;20529;-37
2023/01/22 05:14:06;;;;;;;15.50;12.73;;;1.90;1.00;;;;;;5097028;28;20549;-38
2023/01/22 05:16:32;;;;;;;15.63;13.60;;;1.90;1.00;;;;;;5106512;28;20188;-37
2023/01/22 05:18:58;;;;;;;16.30;14.00;;;1.90;1.00;;;;;;5117575;28;20416;-37
2023/01/22 05:21:24;;;;;;;14.23;12.40;;;1.90;1.00;;;;;;5117925;28;20425;-37
2023/01/22 05:23:49;;;;;;;15.60;13.20;;;1.90;1.00;;;;;;5118502;28;20242;-36
2023/01/22 05:26:15;;;;;;;14.90;12.70;;;1.90;1.00;;;;;;5112023;28;20180;-37
2023/01/22 05:28:41;;;;;;;15.03;12.90;;;1.90;1.00;;;;;;5098864;28;20205;-36
2023/01/22 05:31:06;;;;;;;14.70;12.37;;;1.90;1.00;;;;;;5105088;28;20180;-37
2023/01/22 05:33:32;;;;;;;14.13;12.23;;;1.90;1.00;;;;;;5115280;28;20186;-37
2023/01/22 05:36:00;;;;;;;15.57;13.00;;;1.90;1.00;;;;;;5116333;28;20461;-37
2023/01/22 05:38:27;;;;;;;16.10;12.97;;;1.90;1.00;;;;;;5115270;28;20430;-37
2023/01/22 05:40:53;;;;;;;16.60;14.33;;;1.90;1.00;;;;;;5115970;28;20417;-37
2023/01/22 05:43:19;;;;;;;15.53;13.50;;;1.90;1.00;;;;;;5117403;28;20468;-37
2023/01/22 05:45:45;;;;;;;15.67;13.53;;;1.90;1.00;;;;;;5117194;28;20179;-38
2023/01/22 05:48:11;;;;;;;17.43;14.47;;;1.90;1.00;;;;;;5119362;28;20208;-37
2023/01/22 05:50:38;;;;;;;16.53;14.13;;;1.90;1.00;;;;;;5119542;28;20414;-38
2023/01/22 05:53:04;;;;;;;16.93;13.57;;;1.90;7.00;;;;;;5119818;28;20626;-37
2023/01/22 05:55:31;;;;;;;15.57;13.13;;;1.90;1.00;;;;;;5119173;28;20413;-37
2023/01/22 05:57:56;;;;;;;15.83;13.40;;;1.90;1.00;;;;;;5119852;28;20183;-37
2023/01/22 06:00:22;;;;;;;16.37;13.47;;;1.90;1.00;;;;;;5120942;28;20418;-37
2023/01/22 06:02:48;;;;;;;17.23;14.50;;;1.90;1.00;;;;;;5118838;28;20657;-37
2023/01/22 06:05:13;;;;;;;17.00;13.40;;;1.90;1.00;;;;;;5118559;28;20190;-36
2023/01/22 06:07:39;;;;;;;18.83;14.33;;;1.90;1.00;;;;;;5118307;28;20200;-36
2023/01/22 06:10:06;;;;;;;14.50;12.50;;;1.90;1.00;;;;;;5115052;28;20214;-38
2023/01/22 06:12:34;;;;;;;15.20;12.20;;;2.00;1.00;;;;;;5113985;28;20439;-36
2023/01/22 06:14:59;;;;;;;17.77;13.37;;;2.00;1.00;;;;;;5118499;28;20416;-36
2023/01/22 06:17:25;;;;;;;17.63;14.03;;;1.90;1.00;;;;;;5118672;28;20425;-37
2023/01/22 06:19:51;;;;;;;17.37;13.43;;;1.90;1.00;;;;;;5116529;28;20438;-37
2023/01/22 06:22:18;;;;;;;17.50;14.30;;;2.00;1.00;;;;;;5116124;28;20231;-37
2023/01/22 06:24:43;;;;;;;16.50;12.83;;;2.00;1.00;;;;;;5115925;28;20175;-37
2023/01/22 06:27:09;;;;;;;17.60;14.50;;;2.00;1.00;;;;;;5117471;28;20867;-37
2023/01/22 06:29:34;;;;;;;15.03;13.00;;;2.00;1.00;;;;;;5117612;28;20184;-37
2023/01/22 06:32:00;;;;;;;16.27;13.13;;;2.00;1.00;;;;;;5117636;28;20263;-37
2023/01/22 06:34:26;;;;;;;16.17;12.87;;;2.00;1.00;;;;;;5118207;28;20168;-37
2023/01/22 06:36:51;;;;;;;15.93;13.40;;;2.00;1.00;;;;;;5117573;28;20464;-36
2023/01/22 06:39:17;;;;;;;17.43;12.50;;;2.00;1.00;;;;;;5115288;28;20176;-37
2023/01/22 06:41:42;;;;;;;19.80;15.57;;;2.00;1.00;;;;;;5115409;28;20211;-37
2023/01/22 06:44:08;;;;;;;15.30;13.10;;;2.00;1.00;;;;;;5118428;28;20171;-36
2023/01/22 06:46:34;;;;;;;16.50;12.50;;;2.00;1.00;;;;;;5121055;28;20557;-37
2023/01/22 06:49:01;;;;;;;18.93;14.10;;;2.00;1.00;;;;;;5120987;28;20217;-37
2023/01/22 06:51:28;;;;;;;16.57;14.37;;;2.00;1.00;;;;;;5121424;28;20558;-37
2023/01/22 06:53:54;;;;;;;15.60;13.23;;;2.00;1.00;;;;;;5120625;28;20409;-36
2023/01/22 06:56:19;;;;;;;17.70;14.20;;;2.00;1.00;;;;;;5121498;28;20416;-36
2023/01/22 06:58:45;;;;;;;17.10;14.10;;;2.00;1.00;;;;;;5121309;28;20175;-37
2023/01/22 07:01:10;;;;;;;15.37;13.27;;;2.00;1.00;;;;;;5120828;28;20167;-38
2023/01/22 07:03:36;;;;;;;18.97;15.40;;;2.00;1.00;;;;;;5121512;28;20171;-36
2023/01/22 07:06:03;;;;;;;19.33;15.17;;;2.00;1.00;;;;;;5120396;28;20542;-37
2023/01/22 07:08:30;;;;;;;17.87;14.87;;;2.00;1.00;;;;;;5121803;28;20464;-37
2023/01/22 07:10:56;;;;;;;16.17;14.30;;;2.00;1.00;;;;;;5122178;28;20830;-35
2023/01/22 07:13:22;;;;;;;16.53;14.53;;;2.00;3.50;;;;;;5121174;28;20421;-36
2023/01/22 07:15:48;;;;;;;17.87;13.80;;;2.00;20.80;;;;;;5120738;28;20410;-37
2023/01/22 07:18:14;;;;;;;19.60;14.50;;;2.10;54.70;;;;;;5119002;28;20191;-36
2023/01/22 07:20:41;;;;;;;17.40;13.97;;;2.10;65.80;;;;;;5120831;28;20645;-37
2023/01/22 07:23:07;;;;;;;18.77;14.73;;;2.10;76.00;;;;;;5119211;28;20469;-37
2023/01/22 07:25:33;;;;;;;16.00;13.47;;;2.10;57.10;;;;;;5119194;28;20453;-37
2023/01/22 07:27:59;;;;;;;17.33;13.30;;;2.20;35.90;;;;;;5118433;28;20826;-37
2023/01/22 07:30:25;;;;;;;16.63;13.20;;;2.20;1.00;;;;;;5118230;28;20466;-36
2023/01/22 07:32:51;;;;;;;14.70;12.80;;;2.20;1.00;;;;;;5117559;28;20429;-37
2023/01/22 07:35:17;;;;;;;17.27;12.60;;;2.20;1.00;;;;;;5118225;28;20175;-37
2023/01/22 07:37:42;;;;;;;14.33;12.80;;;2.30;1.00;;;;;;5116034;28;20184;-37
2023/01/22 07:40:08;;;;;;;15.10;12.57;;;2.30;1.00;;;;;;5116859;28;20413;-36
2023/01/22 07:42:34;;;;;;;13.23;11.60;;;2.30;1.00;;;;;;5117562;28;20219;-36
2023/01/22 07:44:59;;;;;;;15.90;12.50;;;2.30;1.00;;;;;;5116789;28;20523;-36
2023/01/22 07:47:25;;;;;;;13.60;12.10;;;2.40;1.00;;;;;;5118773;28;20216;-36
2023/01/22 07:49:51;;;;;;;14.90;12.70;;;2.40;1.00;;;;;;5119076;28;20561;-36
2023/01/22 07:52:16;;;;;;;14.13;12.67;;;2.40;1.00;;;;;;5118709;28;20259;-36
2023/01/22 07:54:42;;;;;;;13.90;12.50;;;2.40;1.00;;;;;;5117909;28;20258;-36
2023/01/22 07:57:13;;;;;;;15.30;12.20;;;2.50;1.00;;;;;;5116993;28;20176;-36
2023/01/22 07:59:38;;;;;;;13.50;11.70;;;2.50;1.00;;;;;;5117976;28;20168;-38
2023/01/22 08:02:04;;;;;;;13.57;11.50;;;2.60;1.00;;;;;;5116604;28;20447;-36
2023/01/22 08:04:29;;;;;;;13.70;12.27;;;2.60;99.90;;;;;;5118834;28;20172;-36
2023/01/22 08:06:55;;;;;;;16.20;12.43;;;2.70;99.90;;;;;;5117704;28;20253;-36
2023/01/22 08:09:24;;;;;;;15.53;13.60;;;2.70;99.90;;;;;;5119520;28;20222;-36
2023/01/22 08:11:50;;;;;;;14.87;12.70;;;2.80;99.90;;;;;;5120338;28;20245;-37
2023/01/22 08:14:16;;;;;;;13.50;12.10;;;2.80;99.90;;;;;;5120251;28;20555;-37
2023/01/22 08:16:42;;;;;;;14.83;13.10;;;2.80;99.90;;;;;;5119826;28;20491;-36
2023/01/22 08:19:08;;;;;;;14.83;12.37;;;2.90;99.90;;;;;;5119843;28;20182;-36
2023/01/22 08:21:34;;;;;;;16.03;12.60;;;2.90;99.90;;;;;;5117444;28;20187;-36
2023/01/22 08:23:59;;;;;;;15.50;13.47;;;2.90;99.90;;;;;;5117916;28;20413;-37
2023/01/22 08:26:25;;;;;;;13.90;11.90;;;2.90;91.00;;;;;;5119308;28;20220;-37
2023/01/22 08:28:51;;;;;;;14.87;13.10;;;2.90;72.00;;;;;;5119484;28;20207;-36
2023/01/22 08:31:16;;;;;;;15.40;12.33;;;3.00;47.40;;;;;;5119331;28;20171;-38
2023/01/22 08:33:42;;;;;;;12.93;11.60;;;3.00;31.20;;;;;;5118195;28;20624;-37
2023/01/22 08:36:08;;;;;;;14.43;12.43;;;3.00;48.40;;;;;;5119380;28;20182;-36
2023/01/22 08:38:33;;;;;;;14.17;11.83;;;3.00;31.80;;;;;;5118268;28;20545;-35
2023/01/22 08:40:59;;;;;;;13.87;12.37;;;3.10;1.00;;;;;;5116350;28;20184;-34
2023/01/22 08:43:25;;;;;;;13.70;11.83;;;3.10;1.00;;;;;;5117566;28;20191;-36
2023/01/22 08:45:51;;;;;;;13.90;11.73;;;3.10;1.00;;;;;;5115493;28;20203;-36
2023/01/22 08:48:17;;;;;;;16.20;13.00;;;3.10;1.00;;;;;;5117486;28;20601;-36
2023/01/22 08:50:42;;;;;;;14.10;12.17;;;3.10;1.00;;;;;;5117396;28;20175;-37
2023/01/22 08:53:08;;;;;;;13.43;11.47;;;3.10;1.00;;;;;;5116300;28;20519;-37
2023/01/22 08:55:35;;;;;;;13.57;11.97;;;3.20;1.00;;;;;;5116069;28;20182;-38
2023/01/22 08:58:01;;;;;;;14.30;12.50;;;3.20;1.00;;;;;;5117454;27;20439;-37
2023/01/22 09:00:27;;;;;;;14.33;12.83;;;3.30;1.00;;;;;;5116682;28;20504;-38
2023/01/22 09:02:57;;;;;;;14.50;12.33;;;3.30;1.00;;;;;;5119768;28;20180;-37
2023/01/22 09:05:23;;;;;;;17.80;14.07;;;3.30;99.90;;;;;;5119403;28;20814;-37
2023/01/22 09:07:49;;;;;;;18.40;15.27;;;3.30;99.90;;;;;;5116674;28;20538;-38
2023/01/22 09:10:15;;;;;;;15.43;13.57;;;3.30;99.90;;;;;;5117565;28;20696;-39
2023/01/22 09:12:41;;;;;;;14.90;13.33;;;3.40;99.90;;;;;;5117513;28;20176;-37
2023/01/22 09:15:07;;;;;;;17.53;13.97;;;3.40;99.90;;;;;;5117132;28;20703;-38
2023/01/22 09:17:32;;;;;;;15.03;13.20;;;3.40;99.90;;;;;;5117413;28;20460;-38
2023/01/22 09:19:59;;;;;;;14.40;12.50;;;3.40;99.90;;;;;;5118381;28;20437;-37
2023/01/22 09:22:24;;;;;;;15.63;13.43;;;3.40;99.90;;;;;;5117133;28;20601;-36
2023/01/22 09:24:50;;;;;;;14.40;12.03;;;3.40;99.90;;;;;;5119427;28;20445;-37
2023/01/22 09:27:16;;;;;;;14.47;12.47;;;3.50;99.90;;;;;;5120156;28;20362;-36
2023/01/22 09:29:41;;;;;;;16.57;13.70;;;3.50;99.90;;;;;;5119953;28;20429;-37
2023/01/22 09:32:07;;;;;;;20.43;15.90;;;3.50;99.90;;;;;;5122803;28;20195;-36
2023/01/22 09:34:33;;;;;;;35.43;22.43;;;3.60;99.90;;;;;;5127865;28;20803;-36
2023/01/22 09:37:01;;;;;;;36.70;24.40;;;3.60;99.90;;;;;;5126662;27;20226;-36
2023/01/22 09:39:27;;;;;;;34.50;22.10;;;3.70;55.00;;;;;;5128049;28;20172;-36
2023/01/22 09:41:54;;;;;;;29.60;20.50;;;3.70;10.50;;;;;;5126625;28;20421;-36
2023/01/22 09:44:38;;;;;;;23.67;17.10;;;3.80;1.00;;;;;;5126802;28;20414;-37
2023/01/22 09:47:08;;;;;;;18.50;14.93;;;3.90;1.00;;;;;;5124273;28;20429;-37
2023/01/22 09:49:51;;;;;;;18.07;15.30;;;4.00;1.00;;;;;;5124933;28;20785;-37
2023/01/22 09:52:17;;;;;;;14.90;12.60;;;4.10;1.00;;;;;;5116546;28;20815;-37
2023/01/22 09:54:42;;;;;;;16.80;13.97;;;4.20;99.90;;;;;;5116261;28;20676;-36
2023/01/22 09:57:12;;;;;;;16.77;13.17;;;4.20;99.90;;;;;;5115914;28;20225;-37
2023/01/22 09:59:48;;;;;;;16.57;14.07;;;4.30;99.90;;;;;;5118404;28;20719;-36
2023/01/22 10:02:41;;;;;;;19.33;13.27;;;4.40;99.90;;;;;;5118899;28;20771;-37
2023/01/22 10:05:29;;;;;;;18.70;13.03;;;4.50;99.90;;;;;;5116855;28;20497;-36
2023/01/22 10:08:13;;;;;;;13.40;11.57;;;4.60;24.70;;;;;;5116494;28;20498;-36
2023/01/22 10:10:40;;;;;;;14.03;11.17;;;4.70;1.00;;;;;;5118157;28;20409;-36
2023/01/22 10:13:15;;;;;;;15.10;12.97;;;4.80;1.00;;;;;;5117199;28;20436;-36
2023/01/22 10:15:40;;;;;;;15.90;11.93;;;4.90;1.00;;;;;;5118632;28;20421;-37
2023/01/22 10:18:37;;;;;;;13.27;11.87;;;5.10;1.00;;;;;;5117751;28;20476;-36
2023/01/22 10:21:06;;;;;;;13.73;11.70;;;5.30;1.00;;;;;;5116837;28;20179;-36
2023/01/22 10:23:33;;;;;;;12.13;10.63;;;5.50;1.00;;;;;;5115763;28;20485;-36
2023/01/22 10:26:23;;;;;;;12.03;10.13;;;5.60;99.90;;;;;;5117351;28;20455;-36
2023/01/22 10:28:51;;;;;;;10.47;9.13;;;5.80;99.90;;;;;;5115580;28;20587;-36
2023/01/22 10:31:35;;;;;;;10.53;9.03;;;5.90;99.90;;;;;;5112416;28;20728;-36
2023/01/22 10:34:08;;;;;;;9.63;8.63;;;5.90;99.90;;;;;;5115316;28;20479;-36
2023/01/22 10:36:33;;;;;;;10.07;8.50;;;6.00;99.90;;;;;;5117111;28;20417;-36
2023/01/22 10:39:12;;;;;;;10.33;9.33;;;6.00;99.90;;;;;;5115105;28;20421;-37
2023/01/22 10:41:39;;;;;;;16.27;6.30;;;6.00;99.90;;;;;;5116232;28;20175;-38
2023/01/22 10:44:18;;;;;;;12.80;7.70;;;8.30;1.00;;;;;;5117280;28;20425;-37
2023/01/22 10:46:48;;;;;;;10.10;8.03;;;9.00;1.00;;;;;;5116628;28;20423;-37
2023/01/22 10:49:18;;;;;;;7.97;7.13;;;10.00;1.00;;;;;;5116903;28;20477;-37
2023/01/22 10:51:51;;;;;;;8.77;7.83;;;10.20;1.00;;;;;;5117369;28;20813;-37
2023/01/22 10:54:22;;;;;;;9.40;8.53;;;10.00;1.00;;;;;;5117261;28;20715;-36
2023/01/22 10:56:48;;;;;;;9.90;8.90;;;9.50;99.90;;;;;;5116595;28;20453;-36
2023/01/22 10:59:21;;;;;;;8.20;7.40;;;9.10;55.40;;;;;;5115040;28;20506;-38
2023/01/22 11:01:48;;;;;;;9.23;8.23;;;8.70;1.00;;;;;;5117023;28;20431;-36
2023/01/22 11:04:33;;;;;;;8.90;7.97;;;8.30;99.90;;;;;;5115676;28;20917;-37
2023/01/22 11:07:03;;;;;;;8.77;7.77;;;7.80;99.90;;;;;;5116618;28;20440;-37
2023/01/22 11:10:01;;;;;;;8.30;7.47;;;7.50;99.90;;;;;;5117420;28;20479;-40
2023/01/22 11:12:40;;;;;;;8.17;7.37;;;7.20;99.90;;;;;;5115876;28;20425;-38
2023/01/22 11:15:21;;;;;;;9.30;8.30;;;7.00;99.90;;;;;;5114597;28;20421;-37
2023/01/22 11:17:51;;;;;;;10.43;9.30;;;6.90;99.90;;;;;;5115772;28;20577;-37
2023/01/22 11:20:44;;;;;;;9.13;8.23;;;6.90;99.90;;;;;;5114324;28;20420;-38
2023/01/22 11:23:13;;;;;;;10.00;9.00;;;6.80;99.90;;;;;;5106996;28;20917;-38
2023/01/22 11:25:57;;;;;;;9.63;8.63;;;6.80;99.90;;;;;;5113552;28;20425;-37
2023/01/22 11:28:42;;;;;;;9.80;8.73;;;6.80;99.90;;;;;;5114172;28;20461;-37
2023/01/22 11:31:22;;;;;;;9.70;8.70;;;6.70;99.90;;;;;;5116045;28;20413;-37
2023/01/22 11:34:11;;;;;;;11.43;9.97;;;6.60;99.90;;;;;;5117177;28;20405;-41
2023/01/22 11:36:45;;;;;;;11.27;10.17;;;6.50;99.90;;;;;;5121064;28;20420;-37
2023/01/22 11:39:26;;;;;;;11.20;8.97;;;6.50;99.90;;;;;;5118640;28;20416;-37
2023/01/22 11:41:58;;;;;;;9.33;8.23;;;6.40;99.90;;;;;;5120240;28;20452;-36
2023/01/22 11:44:48;;;;;;;12.13;8.93;;;6.50;99.90;;;;;;5119529;28;20418;-36
2023/01/22 11:47:58;;;;;;;9.10;8.20;;;6.50;99.90;;;;;;5118044;28;20416;-36
2023/01/22 11:50:42;;;;;;;9.60;8.20;;;6.60;97.90;;;;;;5078745;28;20425;-40
2023/01/22 11:53:12;;;;;;;8.93;8.00;;;6.60;56.70;;;;;;5099926;28;20847;-37
2023/01/22 11:56:30;;;;;;;10.07;8.73;;;6.60;34.90;;;;;;5118977;28;20765;-37
2023/01/22 11:59:24;;;;;;;11.57;10.37;;;6.50;32.50;;;;;;5084114;28;20547;-37
2023/01/22 12:02:09;;;;;;;11.57;8.80;;;6.50;29.50;;;;;;5119042;28;20474;-37
2023/01/22 12:04:54;;;;;;;10.80;9.20;;;6.40;25.30;;;;;;5119521;28;20894;-37
2023/01/22 12:07:41;;;;;;;14.23;11.60;;;6.40;25.50;;;;;;5118889;28;20459;-37
2023/01/22 12:10:26;;;;;;;14.00;12.10;;;6.40;30.50;;;;;;5117360;28;20438;-37
2023/01/22 12:13:25;;;;;;;13.53;11.00;;;6.40;26.30;;;;;;5118683;28;20456;-37
2023/01/22 12:16:13;;;;;;;12.60;10.27;;;6.30;22.00;;;;;;5103919;28;20448;-37
2023/01/22 12:19:00;;;;;;;11.90;10.33;;;6.30;25.00;;;;;;5118346;28;20435;-38
2023/01/22 12:21:47;;;;;;;11.33;10.13;;;6.30;28.20;;;;;;5104021;28;20465;-39
2023/01/22 12:24:31;;;;;;;12.00;10.80;;;6.20;27.60;;;;;;5097911;28;20430;-38
2023/01/22 12:27:09;;;;;;;10.90;9.50;;;6.20;30.50;;;;;;5109773;28;20413;-38
2023/01/22 12:29:42;;;;;;;10.50;9.40;;;6.20;28.60;;;;;;5118166;28;20468;-37
2023/01/22 12:32:12;;;;;;;11.30;10.03;;;6.10;26.80;;;;;;5118136;28;20688;-38
2023/01/22 12:34:43;;;;;;;10.03;8.93;;;6.10;26.60;;;;;;5118091;28;20416;-38
2023/01/22 12:37:16;;;;;;;10.77;9.67;;;6.10;24.70;;;;;;5117435;28;20977;-38
2023/01/22 12:39:48;;;;;;;11.10;9.90;;;6.10;19.80;;;;;;5099833;28;20422;-38
2023/01/22 12:42:48;;;;;;;10.43;9.33;;;6.10;22.60;;;;;;5099267;28;20430;-37
2023/01/22 12:45:40;;;;;;;11.10;10.00;;;6.00;30.10;;;;;;5095944;28;20480;-37
2023/01/22 12:48:20;;;;;;;11.17;9.77;;;6.00;36.00;;;;;;5101322;28;20464;-37
2023/01/22 12:50:51;;;;;;;10.60;9.50;;;6.00;39.70;;;;;;5119295;28;20490;-38
2023/01/22 12:53:27;;;;;;;12.90;10.10;;;5.90;46.80;;;;;;5118288;28;20461;-37
2023/01/22 12:56:04;;;;;;;10.53;8.77;;;5.90;49.80;;;;;;5119862;28;20409;-38
2023/01/22 12:58:32;;;;;;;10.73;8.37;;;5.90;46.60;;;;;;5118885;28;20437;-39
2023/01/22 13:01:03;;;;;;;9.63;8.63;;;5.80;42.30;;;;;;5116389;28;20433;-37
2023/01/22 13:03:29;;;;;;;8.80;7.70;;;5.80;47.20;;;;;;5116649;28;20486;-38
2023/01/22 13:05:57;;;;;;;9.20;8.20;;;5.70;45.70;;;;;;5115501;28;20430;-40
2023/01/22 13:08:44;;;;;;;8.23;7.40;;;5.70;42.10;;;;;;5100286;28;20737;-40